createdAt,value
2018-09-09T00:04:31.954Z,10.63
2018-09-09T00:09:40.477Z,14.70
2018-09-09T00:14:43.516Z,7.57
2018-09-09T00:19:46.544Z,10.10
2018-09-09T00:24:49.554Z,11.30
2018-09-09T00:29:52.556Z,10.70
2018-09-09T00:34:55.602Z,13.43
2018-09-09T00:39:58.611Z,11.70
2018-09-09T00:45:01.711Z,12.13
2018-09-09T00:50:10.296Z,9.87
2018-09-09T00:55:14.535Z,9.17
2018-09-09T01:00:21.962Z,16.40
2018-09-09T01:05:25.075Z,8.13
2018-09-09T01:10:28.182Z,9.33
2018-09-09T01:15:31.299Z,8.20
2018-09-09T01:20:34.315Z,11.30
2018-09-09T01:25:37.406Z,7.03
2018-09-09T01:30:40.507Z,6.63
2018-09-09T01:35:43.723Z,5.83
2018-09-09T01:40:46.719Z,7.97
2018-09-09T01:45:49.815Z,7.83
2018-09-09T01:50:52.930Z,9.20
2018-09-09T01:55:56.035Z,5.80
2018-09-09T02:00:59.040Z,5.57
2018-09-09T02:06:02.105Z,8.17
2018-09-09T02:11:05.143Z,7.10
2018-09-09T02:16:08.451Z,5.00
2018-09-09T02:21:11.443Z,6.00
2018-09-09T02:26:14.526Z,6.50
2018-09-09T02:31:17.555Z,7.30
2018-09-09T02:36:20.676Z,4.97
2018-09-09T02:41:23.675Z,5.57
2018-09-09T02:46:26.658Z,4.37
2018-09-09T02:51:29.659Z,4.90
2018-09-09T02:56:32.675Z,4.83
2018-09-09T03:01:35.667Z,8.93
2018-09-09T03:06:38.654Z,6.60
2018-09-09T03:11:41.694Z,5.50
2018-09-09T03:16:44.690Z,5.10
2018-09-09T03:21:47.692Z,4.20
2018-09-09T03:26:50.770Z,7.00
2018-09-09T03:31:53.778Z,5.50
2018-09-09T03:36:56.758Z,6.67
2018-09-09T03:41:59.794Z,4.43
2018-09-09T03:47:02.910Z,6.93
2018-09-09T03:52:05.907Z,4.80
2018-09-09T03:57:08.914Z,6.03
2018-09-09T04:02:12.016Z,7.30
2018-09-09T04:07:15.019Z,5.83
2018-09-09T04:12:18.126Z,4.00
2018-09-09T04:17:21.163Z,3.73
2018-09-09T04:22:24.164Z,4.33
2018-09-09T04:27:27.238Z,4.30
2018-09-09T04:32:30.276Z,15.00
2018-09-09T04:37:33.270Z,5.00
2018-09-09T04:42:36.269Z,6.07
2018-09-09T04:47:39.447Z,3.73
2018-09-09T04:52:42.674Z,5.50
2018-09-09T04:57:45.762Z,6.80
2018-09-09T05:02:48.802Z,5.70
2018-09-09T05:07:51.832Z,5.40
2018-09-09T05:12:54.838Z,7.30
2018-09-09T05:17:57.846Z,4.23
2018-09-09T05:23:00.886Z,5.93
2018-09-09T05:28:03.935Z,6.10
2018-09-09T05:33:06.943Z,5.03
2018-09-09T05:38:09.949Z,5.13
2018-09-09T05:43:13.103Z,11.33
2018-09-09T05:48:16.202Z,10.23
2018-09-09T05:53:19.326Z,4.60
2018-09-09T05:58:22.350Z,8.60
2018-09-09T06:03:25.360Z,7.27
2018-09-09T06:08:28.368Z,5.17
2018-09-09T06:13:31.349Z,9.10
2018-09-09T06:18:34.357Z,7.90
2018-09-09T06:23:37.392Z,6.50
2018-09-09T06:28:40.424Z,7.40
2018-09-09T06:33:43.478Z,5.33
2018-09-09T06:38:46.466Z,5.90
2018-09-09T06:43:49.466Z,9.40
2018-09-09T06:48:52.466Z,8.10
2018-09-09T06:53:55.500Z,6.57
2018-09-09T06:58:58.539Z,7.60
2018-09-09T07:04:01.906Z,10.60
2018-09-09T07:09:06.322Z,6.00
2018-09-09T07:14:09.342Z,6.70
2018-09-09T07:19:12.479Z,12.90
2018-09-09T07:24:15.445Z,8.43
2018-09-09T07:29:18.423Z,5.50
2018-09-09T07:34:21.464Z,8.27
2018-09-09T07:39:24.503Z,5.03
2018-09-09T07:44:27.502Z,6.20
2018-09-09T07:49:30.515Z,4.27
2018-09-09T07:54:33.515Z,8.00
2018-09-09T07:59:36.522Z,4.97
2018-09-09T08:04:39.523Z,4.20
2018-09-09T08:09:42.554Z,6.33
2018-09-09T08:14:45.622Z,3.97
2018-09-09T08:19:48.671Z,3.13
2018-09-09T08:24:51.686Z,5.43
2018-09-09T08:29:54.739Z,4.93
2018-09-09T08:34:57.735Z,3.53
2018-09-09T08:40:00.730Z,6.40
2018-09-09T08:45:03.936Z,5.20
2018-09-09T08:50:06.934Z,5.17
2018-09-09T08:55:09.934Z,4.50
2018-09-09T09:00:13.031Z,4.20
2018-09-09T09:05:16.299Z,2.90
2018-09-09T09:10:19.449Z,3.00
2018-09-09T09:15:22.543Z,2.87
2018-09-09T09:20:25.670Z,3.70
2018-09-09T09:25:28.838Z,3.20
2018-09-09T09:30:32.443Z,3.00
2018-09-09T09:35:54.054Z,2.37
2018-09-09T09:40:57.066Z,4.60
2018-09-09T09:46:00.135Z,2.70
2018-09-09T09:51:03.144Z,2.33
2018-09-09T09:56:07.071Z,2.50
2018-09-09T10:01:10.099Z,1.90
2018-09-09T10:06:13.175Z,2.53
2018-09-09T10:11:16.190Z,3.30
2018-09-09T10:16:19.230Z,2.10
2018-09-09T10:21:22.230Z,2.93
2018-09-09T10:26:25.235Z,2.33
2018-09-09T10:31:28.243Z,3.27
2018-09-09T10:36:31.242Z,2.20
2018-09-09T10:41:34.302Z,1.57
2018-09-09T10:46:37.341Z,3.50
2018-09-09T10:51:40.322Z,2.87
2018-09-09T10:56:43.410Z,3.77
2018-09-09T11:01:46.420Z,3.87
2018-09-09T11:06:49.535Z,3.07
2018-09-09T11:11:52.542Z,3.50
2018-09-09T11:16:55.558Z,2.03
2018-09-09T11:21:58.579Z,1.83
2018-09-09T11:27:01.639Z,1.77
2018-09-09T11:32:04.682Z,2.37
2018-09-09T11:37:07.752Z,3.77
2018-09-09T11:42:11.051Z,3.50
2018-09-09T11:47:14.113Z,2.53
2018-09-09T11:52:17.222Z,2.10
2018-09-09T11:57:20.211Z,2.70
2018-09-09T12:02:23.226Z,1.80
2018-09-09T12:07:26.255Z,2.93
2018-09-09T12:12:29.262Z,2.17
2018-09-09T12:17:32.763Z,2.00
2018-09-09T12:22:35.802Z,2.07
2018-09-09T12:27:38.810Z,1.43
2018-09-09T12:32:41.881Z,3.20
2018-09-09T12:37:44.945Z,1.63
2018-09-09T12:42:52.259Z,2.17
2018-09-09T12:48:00.822Z,1.17
2018-09-09T12:53:03.856Z,3.20
2018-09-09T12:58:06.949Z,3.30
2018-09-09T13:03:10.039Z,1.23
2018-09-09T13:08:13.045Z,1.93
2018-09-09T13:13:18.043Z,1.43
2018-09-09T13:18:21.063Z,3.60
2018-09-09T13:23:24.127Z,1.47
2018-09-09T13:28:27.210Z,11.60
2018-09-09T13:33:30.316Z,1.87
2018-09-09T13:38:33.331Z,3.27
2018-09-09T13:43:36.427Z,4.27
2018-09-09T13:48:39.483Z,5.10
2018-09-09T13:53:42.514Z,1.33
2018-09-09T13:58:45.512Z,1.53
2018-09-09T14:03:48.546Z,3.60
2018-09-09T14:08:51.552Z,4.00
2018-09-09T14:13:54.596Z,2.13
2018-09-09T14:18:57.606Z,12.50
2018-09-09T14:24:00.670Z,8.50
2018-09-09T14:29:03.688Z,8.57
2018-09-09T14:34:06.756Z,1.50
2018-09-09T14:39:10.413Z,2.60
2018-09-09T14:44:13.398Z,1.87
2018-09-09T14:49:16.406Z,4.80
2018-09-09T14:54:19.547Z,3.30
2018-09-09T14:59:22.540Z,2.60
2018-09-09T15:04:25.526Z,4.43
2018-09-09T15:09:28.520Z,2.40
2018-09-09T15:14:31.610Z,3.60
2018-09-09T15:19:34.611Z,0.97
2018-09-09T15:24:37.644Z,2.00
2018-09-09T15:29:40.666Z,3.70
2018-09-09T15:34:43.679Z,1.90
2018-09-09T15:39:46.719Z,1.97
2018-09-09T15:44:49.779Z,1.17
2018-09-09T15:49:52.822Z,1.40
2018-09-09T15:54:55.859Z,1.50
2018-09-09T15:59:58.928Z,1.20
2018-09-09T16:05:02.015Z,1.00
2018-09-09T16:10:05.190Z,1.00
2018-09-09T16:15:08.200Z,5.13
2018-09-09T16:20:11.211Z,1.30
2018-09-09T16:25:14.724Z,1.30
2018-09-09T16:30:17.738Z,2.40
2018-09-09T16:35:20.850Z,1.40
2018-09-09T16:40:23.850Z,1.40
2018-09-09T16:45:26.887Z,2.10
2018-09-09T16:50:29.917Z,1.33
2018-09-09T16:55:32.975Z,4.10
2018-09-09T17:00:36.131Z,2.03
2018-09-09T17:05:39.183Z,2.37
2018-09-09T17:10:42.208Z,5.93
2018-09-09T17:15:45.305Z,3.80
2018-09-09T17:20:48.299Z,2.20
2018-09-09T17:25:51.502Z,2.50
2018-09-09T17:30:54.527Z,2.00
2018-09-09T17:35:57.603Z,5.40
2018-09-09T17:41:00.620Z,3.23
2018-09-09T17:46:03.779Z,3.77
2018-09-09T17:51:07.001Z,8.37
2018-09-09T17:56:10.401Z,2.00
2018-09-09T18:01:13.634Z,2.60
2018-09-09T18:06:16.751Z,4.10
2018-09-09T18:11:19.751Z,4.57
2018-09-09T18:16:22.992Z,2.90
2018-09-09T18:21:26.933Z,2.60
2018-09-09T18:26:29.970Z,4.03
2018-09-09T18:31:33.543Z,3.33
2018-09-09T18:36:36.601Z,9.93
2018-09-09T18:41:39.674Z,6.03
2018-09-09T18:46:42.712Z,3.10
2018-09-09T18:51:45.706Z,3.77
2018-09-09T18:56:48.736Z,5.80
2018-09-09T19:01:51.742Z,6.70
2018-09-09T19:06:54.749Z,4.20
2018-09-09T19:11:57.738Z,4.87
2018-09-09T19:17:00.755Z,5.33
2018-09-09T19:22:03.783Z,5.17
2018-09-09T19:27:06.800Z,9.50
2018-09-09T19:32:09.845Z,5.10
2018-09-09T19:37:12.996Z,7.53
2018-09-09T19:42:16.091Z,4.43
2018-09-09T19:47:19.213Z,7.53
2018-09-09T19:52:22.199Z,14.10
2018-09-09T19:57:26.105Z,14.03
2018-09-09T20:02:29.432Z,9.57
2018-09-09T20:07:32.861Z,11.60
2018-09-09T20:12:35.909Z,7.90
2018-09-09T20:17:39.056Z,9.20
2018-09-09T20:22:42.103Z,7.60
2018-09-09T20:27:45.110Z,7.80
2018-09-09T20:32:48.151Z,12.63
2018-09-09T20:37:51.183Z,9.17
2018-09-09T20:42:54.288Z,10.77
2018-09-09T20:47:57.393Z,7.80
2018-09-09T20:53:00.499Z,5.60
2018-09-09T20:58:03.603Z,9.93
2018-09-09T21:03:06.707Z,8.00
2018-09-09T21:08:09.731Z,10.43
2018-09-09T21:13:12.752Z,9.57
2018-09-09T21:18:15.827Z,7.97
2018-09-09T21:23:18.876Z,7.30
2018-09-09T21:28:21.910Z,9.70
2018-09-09T21:33:25.947Z,9.50
2018-09-09T21:38:28.994Z,9.20
2018-09-09T21:43:32.048Z,7.50
2018-09-09T21:48:35.103Z,9.20
2018-09-09T21:53:38.105Z,6.67
2018-09-09T21:58:41.098Z,8.90
2018-09-09T22:03:44.115Z,10.37
2018-09-09T22:08:47.872Z,10.03
2018-09-09T22:13:50.931Z,7.40
2018-09-09T22:18:53.948Z,7.30
2018-09-09T22:23:57.073Z,5.50
2018-09-09T22:29:00.084Z,5.80
2018-09-09T22:34:03.076Z,8.97
2018-09-09T22:39:08.033Z,10.27
2018-09-09T22:44:12.132Z,9.47
2018-09-09T22:49:15.170Z,11.27
2018-09-09T22:54:18.170Z,8.33
2018-09-09T22:59:21.177Z,9.50
2018-09-09T23:04:24.154Z,8.00
2018-09-09T23:09:27.515Z,6.43
2018-09-09T23:14:30.507Z,10.50
2018-09-09T23:19:33.535Z,6.97
2018-09-09T23:24:36.567Z,8.77
2018-09-09T23:29:39.675Z,6.13
2018-09-09T23:34:42.699Z,10.47
2018-09-09T23:39:45.748Z,9.17
2018-09-09T23:44:48.795Z,6.30
2018-09-09T23:49:51.798Z,7.27
2018-09-09T23:54:54.838Z,10.33
2018-09-09T23:59:57.838Z,9.30
